Time;durP1;ratioP1;P1;durP2;ratioP2;P2;SDS_P1;SDS_P2;PMS_P1;PMS_P2;Temp;Humidity;BMP_temperature;BMP_pressure;BME280_temperature;BME280_humidity;BME280_pressure;Samples;Min_cycle;Max_cycle;Signal;HPM_P1;HPM_P2
2023/08/25 00:00:45;;;;;;;22.80;18.17;;;;;;;-143.21;68.54;71287.00;5054070;28;20194;-85
2023/08/25 00:03:12;;;;;;;26.48;18.40;;;;;;;-143.21;68.76;71281.06;5054618;28;20210;-85
2023/08/25 00:05:40;;;;;;;24.15;19.23;;;;;;;-143.21;68.38;71287.00;5053966;28;20727;-85
2023/08/25 00:08:07;;;;;;;28.63;18.25;;;;;;;-143.21;68.31;71283.03;5053191;28;20841;-85
2023/08/25 00:10:35;;;;;;;24.35;19.67;;;;;;;-143.21;68.41;71285.03;5073414;28;20667;-85
2023/08/25 00:13:02;;;;;;;22.10;18.13;;;;;;;-143.21;68.64;71288.97;5066499;28;20205;-85
2023/08/25 00:15:32;;;;;;;25.00;18.02;;;;;;;-143.21;68.63;71287.00;5073972;28;20194;-86
2023/08/25 00:17:58;;;;;;;23.45;17.50;;;;;;;-143.21;68.49;71285.03;5061046;28;20229;-84
2023/08/25 00:20:25;;;;;;;28.92;19.15;;;;;;;-143.21;68.66;71287.00;5072120;28;20209;-85
2023/08/25 00:22:52;;;;;;;28.27;18.02;;;;;;;-143.21;68.24;71279.06;5063855;28;20214;-85
2023/08/25 00:25:19;;;;;;;26.02;19.00;;;;;;;-143.21;68.24;71285.03;5054320;28;20198;-85
2023/08/25 00:27:47;;;;;;;23.75;18.63;;;;;;;-143.21;68.32;71290.97;5054097;28;20206;-85
2023/08/25 00:30:14;;;;;;;27.58;19.48;;;;;;;-143.21;68.64;71306.81;5037654;28;20213;-85
2023/08/25 00:32:41;;;;;;;25.88;19.00;;;;;;;-143.21;69.23;71318.72;5033606;28;20717;-84
2023/08/25 00:35:08;;;;;;;26.65;18.70;;;;;;;-143.21;69.46;71332.59;5033563;28;20199;-85
2023/08/25 00:37:35;;;;;;;25.63;18.58;;;;;;;-143.21;69.53;71332.59;5037414;28;20678;-81
2023/08/25 00:40:03;;;;;;;26.08;18.92;;;;;;;-143.21;70.04;71342.50;5053765;28;20202;-82
2023/08/25 00:42:30;;;;;;;27.90;19.35;;;;;;;-143.21;70.03;71342.50;5054793;28;20696;-84
2023/08/25 00:44:58;;;;;;;27.33;19.13;;;;;;;-143.21;70.02;71346.47;5053406;28;20209;-85
2023/08/25 00:47:26;;;;;;;24.38;19.00;;;;;;;-143.21;70.37;71352.44;5053564;28;20240;-82
2023/08/25 00:49:53;;;;;;;22.83;18.85;;;;;;;-143.21;70.63;71344.50;5053315;28;20205;-82
2023/08/25 00:52:22;;;;;;;25.85;19.20;;;;;;;-143.21;70.76;71344.50;5053385;28;20198;-81
2023/08/25 00:54:55;;;;;;;24.60;18.52;;;;;;;-143.21;70.43;71342.50;5068652;28;20263;-82
2023/08/25 00:57:23;;;;;;;23.45;18.70;;;;;;;-143.21;70.43;71340.53;5073341;28;20201;-82
2023/08/25 00:59:51;;;;;;;23.35;18.42;;;;;;;-143.21;70.39;71332.59;5060521;28;20539;-81
2023/08/25 01:02:19;;;;;;;21.70;18.75;;;;;;;-143.21;70.16;71336.56;5053129;28;20227;-85
2023/08/25 01:04:46;;;;;;;26.10;18.40;;;;;;;-143.21;70.32;71330.63;5039653;28;20230;-81
2023/08/25 01:07:13;;;;;;;24.05;18.30;;;;;;;-143.21;70.19;71338.53;5033247;28;20219;-81
2023/08/25 01:09:40;;;;;;;28.67;18.63;;;;;;;-143.21;70.58;71344.50;5033408;28;20202;-81
2023/08/25 01:12:12;;;;;;;23.55;17.45;;;;;;;-143.21;70.86;71352.44;5032936;28;20226;-81
2023/08/25 01:14:46;;;;;;;23.35;18.20;;;;;;;-143.21;70.89;71352.44;5032790;28;20198;-81
2023/08/25 01:17:18;;;;;;;21.85;18.63;;;;;;;-143.21;71.15;71366.31;5053152;28;20194;-80
2023/08/25 01:19:54;;;;;;;26.80;19.33;;;;;;;-143.21;71.34;71364.31;5072185;28;20671;-80
2023/08/25 01:22:28;;;;;;;24.60;18.10;;;;;;;-143.21;71.42;71364.31;5073033;28;20189;-80
2023/08/25 01:25:03;;;;;;;27.35;18.40;;;;;;;-143.21;71.47;71358.38;5072974;28;20189;-80
2023/08/25 01:27:32;;;;;;;21.02;18.05;;;;;;;-143.21;71.39;71358.38;5054159;28;20225;-80
2023/08/25 01:29:59;;;;;;;28.55;18.98;;;;;;;-143.21;71.73;71360.34;5052844;28;20202;-80
2023/08/25 01:32:26;;;;;;;23.02;19.33;;;;;;;-143.21;71.69;71364.31;5047356;28;20205;-80
2023/08/25 01:34:53;;;;;;;21.25;18.38;;;;;;;-143.21;71.53;71360.34;5068515;28;20255;-80
2023/08/25 01:37:28;;;;;;;21.92;17.73;;;;;;;-143.21;71.43;71356.38;5073310;28;20194;-80
2023/08/25 01:40:04;;;;;;;23.05;18.67;;;;;;;-143.21;71.39;71350.44;5073169;28;20197;-82
2023/08/25 01:42:33;;;;;;;22.95;17.88;;;;;;;-143.21;71.33;71342.50;5073299;28;20209;-81
2023/08/25 01:45:02;;;;;;;24.00;18.17;;;;;;;-143.21;71.43;71344.50;5063313;28;20583;-81
2023/08/25 01:47:31;;;;;;;22.77;18.55;;;;;;;-143.21;71.81;71354.41;5053049;28;20217;-81
2023/08/25 01:49:58;;;;;;;22.83;19.42;;;;;;;-143.21;71.99;71358.38;5053731;28;20206;-81
2023/08/25 01:52:25;;;;;;;27.23;19.48;;;;;;;-143.21;72.18;71356.38;5056350;28;20209;-82
2023/08/25 01:54:53;;;;;;;26.55;18.95;;;;;;;-143.21;72.23;71364.31;5060989;28;20189;-84
2023/08/25 01:57:20;;;;;;;24.48;18.90;;;;;;;-143.21;72.69;71370.28;5062116;28;20194;-84
2023/08/25 01:59:48;;;;;;;23.30;19.75;;;;;;;-143.21;72.93;71384.16;5065182;28;20201;-82
2023/08/25 02:02:15;;;;;;;24.83;20.48;;;;;;;-143.21;73.04;71374.22;5054613;28;20195;-82
2023/08/25 02:04:42;;;;;;;22.75;19.50;;;;;;;-143.21;72.91;71374.22;5052952;28;20190;-83
2023/08/25 02:07:08;;;;;;;24.55;19.77;;;;;;;-143.21;72.96;71364.31;5052375;28;20221;-84
2023/08/25 02:09:35;;;;;;;25.90;19.92;;;;;;;-143.21;73.02;71368.28;5060628;28;20683;-84
2023/08/25 02:12:02;;;;;;;26.92;19.83;;;;;;;-143.21;72.86;71368.28;5046708;28;20702;-84
2023/08/25 02:14:29;;;;;;;25.80;19.95;;;;;;;-143.21;72.87;71358.38;5033308;28;20191;-81
2023/08/25 02:16:57;;;;;;;24.85;18.83;;;;;;;-143.21;72.93;71356.38;5064892;28;20201;-84
2023/08/25 02:19:24;;;;;;;23.20;18.27;;;;;;;-143.21;72.57;71356.38;5071148;28;20606;-84
2023/08/25 02:21:50;;;;;;;21.85;18.52;;;;;;;-143.21;72.55;71356.38;5072378;28;20200;-82
2023/08/25 02:24:17;;;;;;;29.08;19.58;;;;;;;-143.21;72.78;71364.31;5070925;28;20190;-85
2023/08/25 02:26:44;;;;;;;24.35;19.13;;;;;;;-143.21;73.12;71368.28;5052000;28;20614;-83
2023/08/25 02:29:11;;;;;;;26.40;19.77;;;;;;;-143.21;73.18;71372.25;5057049;28;20205;-82
2023/08/25 02:31:38;;;;;;;29.42;19.02;;;;;;;-143.21;73.12;71380.19;5051813;28;20252;-83
2023/08/25 02:34:06;;;;;;;26.83;20.52;;;;;;;-143.21;73.02;71370.28;5051756;28;20724;-83
2023/08/25 02:36:33;;;;;;;30.75;20.00;;;;;;;-143.21;73.39;71380.19;5051582;28;20196;-83
2023/08/25 02:39:00;;;;;;;30.33;20.77;;;;;;;-143.21;73.54;71386.13;5051619;28;20205;-83
2023/08/25 02:41:27;;;;;;;23.52;19.52;;;;;;;-143.21;73.57;71388.09;5052661;28;20202;-80
2023/08/25 02:43:54;;;;;;;27.23;19.90;;;;;;;-143.21;73.67;71390.09;5051320;28;20201;-81
2023/08/25 02:46:20;;;;;;;25.33;19.35;;;;;;;-143.21;73.78;71390.09;5051518;28;20225;-82
2023/08/25 02:48:47;;;;;;;26.38;19.77;;;;;;;-143.21;73.87;71402.00;5051576;28;20200;-81
2023/08/25 02:51:15;;;;;;;26.88;19.55;;;;;;;-143.21;73.52;71394.06;5051649;28;20221;-81
2023/08/25 02:53:42;;;;;;;23.95;18.98;;;;;;;-143.21;73.76;71392.06;5062829;28;20197;-81
2023/08/25 02:56:09;;;;;;;28.17;20.52;;;;;;;-143.21;73.68;71398.03;5059212;28;20217;-80
2023/08/25 02:58:36;;;;;;;24.77;20.10;;;;;;;-143.21;73.70;71394.06;5066175;28;20220;-81
2023/08/25 03:01:11;;;;;;;27.63;20.65;;;;;;;-143.21;73.61;71398.03;5051097;28;20201;-81
2023/08/25 03:03:37;;;;;;;24.67;20.40;;;;;;;-143.21;74.01;71417.84;5051598;28;20205;-80
2023/08/25 03:06:04;;;;;;;29.63;20.95;;;;;;;-143.21;74.22;71427.75;5051255;28;20202;-80
2023/08/25 03:08:33;;;;;;;26.98;19.88;;;;;;;-143.21;74.51;71433.72;5069082;28;20694;-80
2023/08/25 03:11:03;;;;;;;28.90;21.70;;;;;;;-143.21;74.60;71441.63;5059435;28;20209;-80
2023/08/25 03:13:30;;;;;;;29.67;21.15;;;;;;;-143.21;75.04;71453.53;5034669;28;20234;-80
2023/08/25 03:15:59;;;;;;;30.13;20.92;;;;;;;-143.21;74.94;71453.53;5031061;28;20577;-80
2023/08/25 03:18:26;;;;;;;30.30;21.38;;;;;;;-143.21;75.27;71463.44;5033850;28;20254;-80
2023/08/25 03:20:53;;;;;;;26.60;21.90;;;;;;;-143.21;75.51;71469.41;5031632;28;20606;-80
2023/08/25 03:23:21;;;;;;;28.58;20.35;;;;;;;-143.21;75.34;71467.41;5035088;28;20202;-80
2023/08/25 03:25:49;;;;;;;30.25;21.75;;;;;;;-143.21;75.24;71471.38;5035167;28;20195;-80
2023/08/25 03:28:15;;;;;;;28.35;22.27;;;;;;;-143.21;75.01;71471.38;5034779;28;20221;-79
2023/08/25 03:30:42;;;;;;;26.90;20.85;;;;;;;-143.21;74.85;71469.41;5061344;28;20205;-81
2023/08/25 03:33:09;;;;;;;28.85;21.58;;;;;;;-143.21;74.96;71473.38;5067365;28;20202;-82
2023/08/25 03:35:37;;;;;;;24.85;21.08;;;;;;;-143.21;74.80;71463.44;5055030;28;20194;-82
2023/08/25 03:38:04;;;;;;;25.13;20.00;;;;;;;-143.21;74.67;71461.47;5056172;28;20202;-81
2023/08/25 03:40:31;;;;;;;27.15;20.90;;;;;;;-143.21;75.20;71479.31;5054483;28;20194;-80
2023/08/25 03:43:00;;;;;;;36.72;21.63;;;;;;;-143.21;75.52;71487.25;5054479;28;20186;-81
2023/08/25 03:45:26;;;;;;;32.42;21.85;;;;;;;-143.21;75.62;71495.19;5054353;28;20198;-81
2023/08/25 03:47:53;;;;;;;34.28;21.40;;;;;;;-143.21;76.14;71505.09;5064497;28;20221;-81
2023/08/25 03:50:21;;;;;;;28.50;21.88;;;;;;;-143.21;76.56;71503.09;5074484;28;20200;-81
2023/08/25 03:52:49;;;;;;;25.60;21.42;;;;;;;-143.21;76.81;71511.03;5066857;28;20213;-81
2023/08/25 03:55:16;;;;;;;28.25;20.10;;;;;;;-143.21;77.08;71511.03;5069009;28;20231;-81
2023/08/25 03:57:43;;;;;;;25.45;20.05;;;;;;;-143.21;77.17;71509.06;5075597;28;20196;-80
2023/08/25 04:00:12;;;;;;;23.25;18.83;;;;;;;-143.21;77.06;71501.13;5058531;28;20209;-81
2023/08/25 04:02:39;;;;;;;27.40;19.38;;;;;;;-143.21;77.03;71503.09;5054115;28;20908;-81
2023/08/25 04:05:07;;;;;;;22.90;19.70;;;;;;;-143.21;76.77;71495.19;5054693;28;20198;-83
2023/08/25 04:07:33;;;;;;;24.77;18.60;;;;;;;-143.21;76.57;71491.22;5054425;28;20218;-85
2023/08/25 04:10:00;;;;;;;28.95;19.50;;;;;;;-143.21;76.50;71479.31;5054394;28;20320;-84
2023/08/25 04:12:27;;;;;;;25.20;19.60;;;;;;;-143.21;75.94;71477.34;5053426;28;20248;-83
2023/08/25 04:14:54;;;;;;;22.65;19.20;;;;;;;-143.21;75.83;71463.44;5054194;28;20202;-85
2023/08/25 04:17:24;;;;;;;23.58;19.63;;;;;;;-143.21;75.75;71471.38;5067236;28;20201;-85
2023/08/25 04:19:50;;;;;;;29.17;19.70;;;;;;;-143.21;76.30;71485.25;5069765;28;20233;-84
2023/08/25 04:22:17;;;;;;;28.42;19.08;;;;;;;-143.21;76.63;71497.16;5073273;28;20721;-84
2023/08/25 04:24:44;;;;;;;25.98;19.52;;;;;;;-143.21;76.75;71509.06;5073666;28;20585;-85
2023/08/25 04:27:11;;;;;;;28.50;20.10;;;;;;;-143.21;77.00;71509.06;5073790;28;20295;-83
2023/08/25 04:29:38;;;;;;;29.60;20.20;;;;;;;-143.21;77.22;71507.06;5073873;28;20204;-84
2023/08/25 04:32:05;;;;;;;25.15;19.35;;;;;;;-143.21;77.36;71509.06;5072878;28;20667;-85
2023/08/25 04:34:33;;;;;;;26.67;19.70;;;;;;;-143.21;77.31;71505.09;5073245;28;20193;-84
2023/08/25 04:37:00;;;;;;;24.30;20.15;;;;;;;-143.21;77.24;71505.09;5074172;28;20196;-81
2023/08/25 04:39:27;;;;;;;25.00;19.88;;;;;;;-143.21;77.24;71501.13;5073581;28;20193;-80
2023/08/25 04:41:54;;;;;;;25.35;19.80;;;;;;;-143.21;77.01;71505.09;5073203;28;20197;-80
2023/08/25 04:44:24;;;;;;;26.25;20.33;;;;;;;-143.21;76.54;71503.09;5059842;28;20194;-78
2023/08/25 04:46:51;;;;;;;29.23;20.50;;;;;;;-143.21;76.35;71493.19;5057200;28;20205;-79
2023/08/25 04:49:18;;;;;;;31.77;21.25;;;;;;;-143.21;76.11;71497.16;5056190;28;20672;-80
2023/08/25 04:51:46;;;;;;;36.50;20.98;;;;;;;-143.21;76.60;71503.09;5051864;28;20209;-79
2023/08/25 04:54:13;;;;;;;28.58;20.80;;;;;;;-143.21;76.99;71522.94;5052521;28;20648;-81
2023/08/25 04:56:39;;;;;;;26.98;20.85;;;;;;;-143.21;77.63;71526.91;5052143;28;20206;-77
2023/08/25 04:59:06;;;;;;;26.35;21.08;;;;;;;-143.21;77.77;71526.91;5063368;28;20198;-79
2023/08/25 05:01:33;;;;;;;32.83;21.77;;;;;;;-143.21;77.77;71536.81;5051964;28;20234;-78
2023/08/25 05:04:00;;;;;;;33.72;22.92;;;;;;;-143.21;78.29;71542.75;5051857;28;20202;-78
2023/08/25 05:06:27;;;;;;;34.65;23.00;;;;;;;-143.21;78.30;71542.75;5058770;28;20205;-80
2023/08/25 05:08:56;;;;;;;31.15;22.80;;;;;;;-143.21;78.21;71532.84;5071743;28;20224;-80
2023/08/25 05:11:23;;;;;;;34.30;22.45;;;;;;;-143.21;78.12;71522.94;5071504;28;20197;-84
2023/08/25 05:13:50;;;;;;;31.08;21.70;;;;;;;-143.21;76.72;71485.25;5071651;28;20208;-78
2023/08/25 05:16:18;;;;;;;31.65;21.08;;;;;;;-143.21;76.15;71475.34;5061555;28;20293;-83
2023/08/25 05:18:46;;;;;;;28.45;20.98;;;;;;;-143.21;76.01;71479.31;5069784;28;20245;-83
2023/08/25 05:21:15;;;;;;;25.40;20.88;;;;;;;-143.21;76.33;71479.31;5054971;28;20198;-82
2023/08/25 05:23:46;;;;;;;32.75;21.17;;;;;;;-143.21;76.33;71483.28;5052860;28;20190;-84
2023/08/25 05:26:15;;;;;;;27.58;21.27;;;;;;;-143.21;76.12;71475.34;5032283;28;20220;-83
2023/08/25 05:28:41;;;;;;;27.27;21.23;;;;;;;-143.21;76.35;71471.38;5032605;28;20699;-83
2023/08/25 05:31:09;;;;;;;31.08;23.10;;;;;;;-143.21;76.48;71469.41;5032188;28;20198;-83
2023/08/25 05:33:36;;;;;;;27.80;21.90;;;;;;;-143.21;76.49;71469.41;5033509;28;20203;-87
2023/08/25 05:36:06;;;;;;;28.98;20.73;;;;;;;-143.21;76.15;71445.59;5034274;28;20648;-87
2023/08/25 05:38:33;;;;;;;27.33;20.55;;;;;;;-143.21;75.30;71423.78;5046239;28;20202;-85
2023/08/25 05:41:00;;;;;;;30.58;20.75;;;;;;;-143.21;74.59;71413.88;5060322;28;20205;-83
2023/08/25 05:43:29;;;;;;;26.90;20.25;;;;;;;-143.21;74.79;71425.78;5070631;28;20198;-82
2023/08/25 05:45:55;;;;;;;28.60;20.08;;;;;;;-143.21;75.39;71429.75;5069532;28;20711;-82
2023/08/25 05:48:22;;;;;;;23.77;19.83;;;;;;;-143.21;75.40;71423.78;5071066;28;20600;-83
2023/08/25 05:50:49;;;;;;;25.52;20.45;;;;;;;-143.21;75.01;71415.88;5069863;28;20300;-81
2023/08/25 05:53:16;;;;;;;28.27;20.23;;;;;;;-143.21;75.13;71421.81;5071723;28;20203;-81
2023/08/25 05:55:43;;;;;;;25.23;19.70;;;;;;;-143.21;75.33;71423.78;5071156;28;20213;-83
2023/08/25 05:58:10;;;;;;;23.45;18.90;;;;;;;-143.21;75.29;71417.84;5073349;28;20241;-83
2023/08/25 06:00:39;;;;;;;24.42;19.40;;;;;;;-143.21;74.99;71398.03;5055739;28;20620;-85
2023/08/25 06:03:05;;;;;;;25.00;19.73;;;;;;;-143.21;73.51;71354.41;5052219;28;20201;-85
2023/08/25 06:05:32;;;;;;;29.05;18.95;;;;;;;-143.21;72.73;71332.59;5058233;28;20210;-85
2023/08/25 06:07:59;;;;;;;23.10;18.50;;;;;;;-143.21;72.17;71324.66;5071363;28;20217;-86
2023/08/25 06:10:28;;;;;;;24.27;18.58;;;;;;;-143.21;72.64;71334.59;5071064;28;20189;-87
2023/08/25 06:12:55;;;;;;;26.13;19.20;;;;;;;-143.21;72.72;71340.53;5072484;28;20266;-87
2023/08/25 06:15:21;;;;;;;22.75;17.98;;;;;;;-143.21;72.82;71340.53;5067673;28;20198;-88
2023/08/25 06:17:50;;;;;;;21.60;18.42;;;;;;;-143.21;73.15;71338.53;5070502;28;20197;-84
2023/08/25 06:20:16;;;;;;;23.48;18.42;;;;;;;-143.21;73.27;71328.63;5064665;28;20206;-86
2023/08/25 06:22:43;;;;;;;22.10;18.10;;;;;;;-143.21;73.02;71324.66;5051608;28;20228;-86
2023/08/25 06:25:12;;;;;;;28.02;18.88;;;;;;;-143.21;73.01;71318.72;5047559;28;20229;-87
2023/08/25 06:27:39;;;;;;;23.75;18.48;;;;;;;-143.21;72.67;71308.81;5051507;28;20222;-85
2023/08/25 06:30:08;;;;;;;29.60;19.73;;;;;;;-143.21;71.81;71271.13;5051447;28;20201;-85
2023/08/25 06:32:34;;;;;;;25.73;17.70;;;;;;;-143.21;71.26;71245.38;5051771;28;20289;-86
2023/08/25 06:35:03;;;;;;;24.10;17.35;;;;;;;-143.21;70.26;71223.56;5051902;28;20198;-86
2023/08/25 06:37:29;;;;;;;20.15;17.30;;;;;;;-143.21;70.19;71211.66;5051471;28;20193;-86
2023/08/25 06:39:56;;;;;;;26.20;17.48;;;;;;;-143.21;69.68;71209.69;5062204;28;20271;-86
2023/08/25 06:42:23;;;;;;;19.15;16.88;;;;;;;-143.21;69.54;71199.78;5071825;28;20220;-86
2023/08/25 06:44:51;;;;;;;22.90;16.48;;;;;;;-143.21;69.71;71195.81;5070818;28;20636;-87
2023/08/25 06:47:18;;;;;;;24.92;17.13;;;;;;;-143.21;69.39;71195.81;5051810;28;20586;-86
2023/08/25 06:49:45;;;;;;;24.10;17.15;;;;;;;-143.21;68.88;71172.00;5051422;28;20201;-87
2023/08/25 06:52:16;;;;;;;25.17;16.30;;;;;;;-143.21;68.23;71154.16;5052352;28;20209;-87
2023/08/25 06:54:47;;;;;;;25.42;18.00;;;;;;;-143.21;67.52;71144.25;5057960;28;20193;-87
2023/08/25 06:57:14;;;;;;;23.13;16.45;;;;;;;-143.21;67.28;71144.25;5078848;28;20212;-87
2023/08/25 06:59:41;;;;;;;25.65;17.23;;;;;;;-143.21;67.08;71138.31;5076427;28;20251;-87
2023/08/25 07:02:08;;;;;;;22.55;16.85;;;;;;;-143.21;67.15;71128.41;5054772;28;20324;-83
2023/08/25 07:04:35;;;;;;;24.58;17.30;;;;;;;-143.21;66.90;71118.50;5050497;28;20194;-83
2023/08/25 07:07:02;;;;;;;22.05;17.65;;;;;;;-143.21;66.73;71110.56;5060977;28;20200;-81
2023/08/25 07:09:31;;;;;;;22.85;17.55;;;;;;;-143.21;66.06;71096.69;5070571;28;20225;-82
2023/08/25 07:11:58;;;;;;;20.90;17.05;;;;;;;-143.21;65.51;71078.84;5049151;28;20190;-82
2023/08/25 07:14:25;;;;;;;23.90;17.63;;;;;;;-143.21;65.25;71068.94;5071504;28;20190;-82
2023/08/25 07:16:52;;;;;;;22.33;15.60;;;;;;;-143.21;64.12;71061.00;5071180;28;20691;-82
2023/08/25 07:19:19;;;;;;;21.40;16.30;;;;;;;-143.21;64.16;71057.03;5071186;28;20235;-83
2023/08/25 07:21:45;;;;;;;30.58;16.75;;;;;;;-143.21;63.93;71057.03;5062543;28;20212;-83
2023/08/25 07:24:12;;;;;;;21.55;15.50;;;;;;;-143.21;63.99;71061.00;5071485;28;20350;-87
2023/08/25 07:26:41;;;;;;;25.80;15.20;;;;;;;-143.21;64.41;71057.03;5068461;28;20209;-84
2023/08/25 07:29:08;;;;;;;20.40;13.10;;;;;;;-143.21;63.51;71053.06;5070587;28;20229;-85
2023/08/25 07:31:35;;;;;;;17.38;14.48;;;;;;;-143.21;63.39;71051.09;5070838;28;20649;-84
2023/08/25 07:34:02;;;;;;;17.25;14.50;;;;;;;-143.21;62.62;71041.16;5061422;28;20657;-84
2023/08/25 07:36:29;;;;;;;18.55;14.77;;;;;;;-143.21;61.86;71007.47;5051263;28;20198;-84
2023/08/25 07:38:56;;;;;;;21.52;15.27;;;;;;;-143.21;61.92;71003.50;5051089;28;20199;-83
2023/08/25 07:41:22;;;;;;;18.27;13.43;;;;;;;-143.21;61.25;71003.50;5050688;28;20692;-84
2023/08/25 07:43:51;;;;;;;21.17;12.98;;;;;;;-143.21;59.66;70995.56;5050682;28;20578;-83
2023/08/25 07:46:17;;;;;;;17.85;13.30;;;;;;;-143.21;60.26;70993.59;5050655;28;20202;-83
2023/08/25 07:48:45;;;;;;;22.48;13.30;;;;;;;-143.21;60.39;70989.63;5051699;28;20229;-81
2023/08/25 07:51:12;;;;;;;15.80;11.88;;;;;;;-143.21;57.57;70985.66;5070249;28;20201;-80
2023/08/25 07:53:39;;;;;;;15.38;12.18;;;;;;;-143.21;57.00;70993.59;5065188;28;20290;-81
2023/08/25 07:56:06;;;;;;;17.38;13.40;;;;;;;-143.21;60.28;70989.63;5067079;28;20205;-82
2023/08/25 07:58:33;;;;;;;18.20;12.85;;;;;;;-143.21;58.89;70973.78;5069138;28;20194;-81
2023/08/25 08:01:02;;;;;;;12.65;11.07;;;;;;;-143.21;57.37;70965.84;5064954;28;20318;-80
2023/08/25 08:03:29;;;;;;;18.10;12.98;;;;;;;-143.21;58.68;70959.91;5067471;28;20214;-81
2023/08/25 08:05:56;;;;;;;17.90;12.27;;;;;;;-143.21;58.66;70948.00;5049342;28;20672;-83
2023/08/25 08:08:23;;;;;;;19.02;12.43;;;;;;;-143.21;57.03;70946.03;5051532;28;20222;-80
2023/08/25 08:10:50;;;;;;;15.00;12.40;;;;;;;-143.21;56.70;70936.09;5053469;28;20271;-79
2023/08/25 08:13:16;;;;;;;15.00;11.85;;;;;;;-143.21;56.83;70930.16;5038183;28;20201;-84
2023/08/25 08:15:43;;;;;;;17.40;11.27;;;;;;;-143.21;56.30;70928.19;5046845;28;20213;-85
2023/08/25 08:18:11;;;;;;;14.18;10.63;;;;;;;-143.21;55.31;70918.25;5044611;28;20234;-86
2023/08/25 08:20:38;;;;;;;14.23;9.38;;;;;;;-143.21;53.91;70908.34;5043980;28;20226;-84
2023/08/25 08:23:05;;;;;;;11.60;9.32;;;;;;;-143.21;53.13;70900.41;5036289;28;20201;-93
2023/08/25 08:25:35;;;;;;;17.05;9.68;;;;;;;-143.21;53.35;70890.50;5033533;28;20203;-81
2023/08/25 08:28:02;;;;;;;14.57;9.77;;;;;;;-143.21;52.81;70880.59;5018928;28;20210;-84
2023/08/25 08:30:29;;;;;;;14.20;10.35;;;;;;;-143.21;52.19;70870.69;5037790;28;20202;-84
2023/08/25 08:32:56;;;;;;;9.77;8.20;;;;;;;-143.21;50.18;70868.72;5041127;28;20238;-85
2023/08/25 08:35:24;;;;;;;12.95;8.05;;;;;;;-143.21;49.17;70848.88;5034436;28;20284;-87
2023/08/25 08:37:51;;;;;;;10.75;8.18;;;;;;;-143.21;50.23;70848.88;5038308;28;20222;-87
2023/08/25 08:40:20;;;;;;;9.68;7.35;;;;;;;-143.21;48.50;70840.97;5034360;28;20230;-84
2023/08/25 08:42:50;;;;;;;14.30;7.47;;;;;;;-143.21;48.25;70829.06;5043973;28;20280;-85
2023/08/25 08:45:18;;;;;;;9.57;7.68;;;;;;;-143.21;49.11;70815.19;5044700;28;20205;-85
2023/08/25 08:47:46;;;;;;;11.18;8.05;;;;;;;-143.21;48.71;70803.28;5037399;28;20234;-85
2023/08/25 08:50:13;;;;;;;10.75;7.35;;;;;;;-143.21;47.70;70793.38;5035612;28;20218;-85
2023/08/25 08:52:49;;;;;;;11.40;8.13;;;;;;;-143.21;47.54;70765.63;5032600;28;20597;-86
2023/08/25 08:55:16;;;;;;;10.50;7.72;;;;;;;-143.21;46.80;70743.81;5029363;28;20286;-87
2023/08/25 08:57:44;;;;;;;14.48;7.60;;;;;;;-143.21;46.21;70720.03;5027749;28;20202;-86
2023/08/25 09:00:12;;;;;;;10.57;7.93;;;;;;;-143.21;46.17;70716.06;5022714;28;20296;-86
2023/08/25 09:02:43;;;;;;;8.77;7.05;;;;;;;-143.21;46.34;70720.03;5020441;28;20743;-86
2023/08/25 09:05:15;;;;;;;10.63;7.60;;;;;;;-143.21;46.22;70710.13;5025249;28;20213;-87
2023/08/25 09:07:43;;;;;;;9.48;7.15;;;;;;;-143.21;46.08;70704.19;5029360;28;20203;-86
2023/08/25 09:10:11;;;;;;;12.35;7.05;;;;;;;-143.21;45.82;70680.38;5030471;28;20225;-89
2023/08/25 09:12:38;;;;;;;14.52;7.53;;;;;;;-143.21;43.98;70672.47;5035565;28;20260;-86
2023/08/25 09:15:08;;;;;;;10.77;7.57;;;;;;;-143.21;44.93;70656.59;5035047;28;20203;-89
2023/08/25 09:17:37;;;;;;;9.63;7.35;;;;;;;-143.21;43.42;70648.69;5031868;28;20227;-89
2023/08/25 09:20:06;;;;;;;9.95;7.45;;;;;;;-143.21;43.85;70658.59;5035539;28;20276;-80
2023/08/25 09:22:34;;;;;;;9.85;7.03;;;;;;;-143.21;44.02;70652.66;5005224;28;20636;-83
2023/08/25 09:25:01;;;;;;;10.38;6.80;;;;;;;-143.21;43.35;70648.69;5016976;28;20199;-88
2023/08/25 09:27:29;;;;;;;11.70;8.18;;;;;;;-143.21;43.38;70622.91;5030160;28;20203;-87
2023/08/25 09:30:03;;;;;;;10.00;6.82;;;;;;;-143.21;42.16;70616.97;5026221;28;20227;-87
2023/08/25 09:32:30;;;;;;;9.00;6.53;;;;;;;-143.21;43.11;70599.13;5027491;28;20226;-87
2023/08/25 09:35:10;;;;;;;8.88;6.20;;;;;;;-143.21;41.16;70559.47;5032539;28;20234;-86
2023/08/25 09:37:41;;;;;;;13.52;6.32;;;;;;;-143.21;40.50;70527.75;5033800;28;20210;-87
2023/08/25 09:40:12;;;;;;;10.15;6.35;;;;;;;-143.21;40.67;70507.94;5018165;28;20229;-86
2023/08/25 09:42:40;;;;;;;6.90;5.95;;;;;;;-143.21;39.90;70494.06;5029258;28;20724;-86
2023/08/25 09:45:09;;;;;;;10.43;6.63;;;;;;;-143.21;40.11;70472.25;5026779;28;20214;-85
2023/08/25 09:47:36;;;;;;;8.60;6.97;;;;;;;-143.21;39.68;70436.59;5025031;28;20596;-83
2023/08/25 09:50:03;;;;;;;13.65;7.57;;;;;;;-143.21;39.74;70412.81;5022370;28;20232;-84
2023/08/25 09:52:34;;;;;;;10.15;6.65;;;;;;;-143.21;39.89;70379.09;5027137;28;21179;-85
2023/08/25 09:55:02;;;;;;;9.35;6.93;;;;;;;-143.21;38.48;70347.41;5022995;28;20190;-83
2023/08/25 09:57:30;;;;;;;9.80;7.05;;;;;;;-143.21;38.15;70339.47;5024088;28;20207;-83
2023/08/25 10:00:00;;;;;;;8.68;7.05;;;;;;;-143.21;38.82;70327.56;5027706;28;20198;-81
2023/08/25 10:02:27;;;;;;;10.68;6.32;;;;;;;-143.21;38.39;70315.69;5020906;28;20206;-84
2023/08/25 10:04:56;;;;;;;9.80;6.95;;;;;;;-143.21;38.57;70305.78;5026956;28;20218;-83
2023/08/25 10:07:23;;;;;;;14.80;7.63;;;;;;;-143.21;37.79;70287.94;5026627;28;20199;-84
2023/08/25 10:09:50;;;;;;;10.07;6.65;;;;;;;-143.21;37.05;70293.88;5021111;28;20226;-83
2023/08/25 10:12:20;;;;;;;11.30;5.60;;;;;;;-143.21;37.00;70266.13;5022287;28;20218;-83
2023/08/25 10:14:51;;;;;;;9.48;5.60;;;;;;;-143.21;36.12;70250.28;5025871;28;20210;-84
2023/08/25 10:17:20;;;;;;;7.45;5.90;;;;;;;-143.21;35.96;70246.31;5020661;28;20199;-85
2023/08/25 10:19:50;;;;;;;9.20;5.95;;;;;;;-143.21;35.66;70242.34;5039290;28;21553;-86
2023/08/25 10:22:19;;;;;;;10.15;5.07;;;;;;;-143.21;35.19;70218.56;5049742;28;20203;-84
2023/08/25 10:24:46;;;;;;;6.97;4.68;;;;;;;-143.21;34.28;70182.91;5045143;28;20606;-85
2023/08/25 10:27:14;;;;;;;9.80;5.28;;;;;;;-143.21;34.05;70145.25;5045233;28;20209;-84
2023/08/25 10:29:42;;;;;;;7.18;4.45;;;;;;;-143.21;33.35;70105.59;5044158;28;20229;-83
2023/08/25 10:32:11;;;;;;;7.97;4.70;;;;;;;-143.21;32.98;70091.72;5035322;28;20214;-84
2023/08/25 10:34:43;;;;;;;7.47;4.70;;;;;;;-143.21;33.01;70085.78;5043633;28;20206;-86
2023/08/25 10:37:11;;;;;;;6.45;4.85;;;;;;;-143.21;32.96;70065.97;5044031;28;20214;-87
2023/08/25 10:39:52;;;;;;;5.72;4.70;;;;;;;-143.21;33.01;70036.25;5047602;28;20221;-86
2023/08/25 10:42:21;;;;;;;7.95;4.97;;;;;;;-143.21;32.22;70012.47;5045743;28;21169;-85
2023/08/25 10:44:54;;;;;;;7.88;4.78;;;;;;;-143.21;33.07;70022.38;5051194;28;20213;-86
2023/08/25 10:47:22;;;;;;;7.10;5.10;;;;;;;-143.21;32.96;69990.66;5040697;28;20622;-86
2023/08/25 10:49:53;;;;;;;9.00;4.93;;;;;;;-143.21;32.56;70028.31;5043094;28;20237;-84
2023/08/25 10:52:21;;;;;;;5.82;4.80;;;;;;;-143.21;32.11;70067.94;5041482;28;20245;-86
2023/08/25 10:54:51;;;;;;;11.43;4.88;;;;;;;-143.21;32.77;70040.19;5045543;28;20705;-84
2023/08/25 10:57:41;;;;;;;13.30;5.20;;;;;;;-143.21;31.75;70022.38;5042086;28;20641;-84
2023/08/25 11:00:30;;;;;;;8.55;5.10;;;;;;;-143.21;32.67;70071.91;5044943;28;20204;-85
2023/08/25 11:02:57;;;;;;;8.82;4.70;;;;;;;-143.21;32.01;70063.97;5045443;28;20627;-84
2023/08/25 11:05:53;;;;;;;7.68;4.68;;;;;;;-143.21;31.92;70044.16;5047988;28;20328;-85
2023/08/25 11:08:27;;;;;;;8.07;4.55;;;;;;;-143.21;31.75;70018.41;5045156;28;20213;-84